createdAt,value
2018-04-24T17:25:03.203Z,6.50
2018-04-24T17:25:12.085Z,7.50
2018-04-24T17:25:45.497Z,6.63
2018-04-24T17:25:54.405Z,8.24
2018-04-24T17:26:03.309Z,7.94
2018-04-24T17:26:12.184Z,8.07
2018-04-24T17:26:21.040Z,8.03
2018-04-24T17:26:30.364Z,8.00
2018-04-24T17:27:34.451Z,7.28
2018-04-24T18:05:23.352Z,25.45
2018-04-24T18:14:22.244Z,11.98
2018-04-24T18:20:04.069Z,2.10
2018-04-24T18:22:31.639Z,1.80
2018-04-24T18:24:59.194Z,1.53
2018-04-24T18:27:26.776Z,1.85
2018-04-24T18:29:54.337Z,1.67
2018-04-24T18:32:21.884Z,1.75
2018-04-24T18:34:49.486Z,2.40
2018-04-24T18:37:17.051Z,2.50
2018-04-24T18:39:44.663Z,2.92
2018-04-24T18:42:12.212Z,2.58
2018-04-24T18:44:39.755Z,1.95
2018-04-24T18:47:07.297Z,2.08
2018-04-24T18:49:34.852Z,2.78
2018-04-24T18:52:02.436Z,2.42
2018-04-24T18:54:29.974Z,2.83
2018-04-24T18:56:57.504Z,3.10
2018-04-24T18:59:25.118Z,4.20
2018-04-24T19:01:52.603Z,3.50
2018-04-24T19:04:20.924Z,2.92
2018-04-24T19:06:48.529Z,2.90
2018-04-24T19:09:16.093Z,3.15
2018-04-24T19:11:43.658Z,3.78
2018-04-24T19:14:16.859Z,3.12
2018-04-24T19:16:44.414Z,2.83
2018-04-24T19:19:17.543Z,3.03
2018-04-24T19:21:45.106Z,3.20
2018-04-24T19:24:18.327Z,3.03
2018-04-24T19:26:45.878Z,2.83
2018-04-24T19:29:13.428Z,2.80
2018-04-24T19:31:47.309Z,3.30
2018-04-24T19:34:14.842Z,2.83
2018-04-24T19:36:42.414Z,4.00
2018-04-24T19:39:15.668Z,3.58
2018-04-24T19:41:49.630Z,4.72
2018-04-24T19:44:17.190Z,6.80
2018-04-24T19:46:44.759Z,5.05
2018-04-24T19:49:18.185Z,5.00
2018-04-24T19:51:45.690Z,5.10
2018-04-24T19:54:13.239Z,4.78
2018-04-24T19:56:40.778Z,3.50
2018-04-24T19:59:09.098Z,3.45
2018-04-24T20:01:36.639Z,3.85
2018-04-24T20:04:04.197Z,3.70
2018-04-24T20:06:31.734Z,3.83
2018-04-24T20:08:59.266Z,3.25
2018-04-24T20:11:26.824Z,3.50
2018-04-24T20:13:54.389Z,3.50
2018-04-24T20:16:21.945Z,3.65
2018-04-24T20:18:49.473Z,3.65
2018-04-24T20:21:17.883Z,3.30
2018-04-24T20:23:45.469Z,3.85
2018-04-24T20:26:13.018Z,3.33
2018-04-24T20:28:40.575Z,3.50
2018-04-24T20:31:08.162Z,3.90
2018-04-24T20:33:35.739Z,4.07
2018-04-24T20:36:03.332Z,7.25
2018-04-24T20:38:31.629Z,34.90
2018-04-24T20:40:59.926Z,23.80
2018-04-24T20:43:27.467Z,27.25
2018-04-24T20:45:55.790Z,15.80
2018-04-24T20:48:23.340Z,10.32
2018-04-24T20:50:50.896Z,9.30
2018-04-24T20:53:18.451Z,10.07
2018-04-24T20:55:45.995Z,6.57
2018-04-24T20:58:14.328Z,8.30
2018-04-24T21:00:41.951Z,6.30
2018-04-24T21:03:09.445Z,5.70
2018-04-24T21:05:37.002Z,5.43
2018-04-24T21:08:04.553Z,6.60
2018-04-24T21:10:32.081Z,5.70
2018-04-24T21:12:59.615Z,5.10
2018-04-24T21:15:27.154Z,4.97
2018-04-24T21:17:54.711Z,4.78
2018-04-24T21:20:22.308Z,4.97
2018-04-24T21:22:49.857Z,4.53
2018-04-24T21:25:17.422Z,4.60
2018-04-24T21:27:44.957Z,4.53
2018-04-24T21:30:13.302Z,5.57
2018-04-24T21:32:40.860Z,5.40
2018-04-24T21:35:08.490Z,5.47
2018-04-24T21:37:35.964Z,5.60
2018-04-24T21:40:03.543Z,5.50
2018-04-24T21:42:31.103Z,4.90
2018-04-24T21:44:58.652Z,5.12
2018-04-24T21:47:26.194Z,5.00
2018-04-24T21:49:53.751Z,5.10
2018-04-24T21:52:22.055Z,4.87
2018-04-24T21:54:49.577Z,6.53
2018-04-24T21:57:17.152Z,6.68
2018-04-24T21:59:45.454Z,5.22
2018-04-24T22:02:13.065Z,4.82
2018-04-24T22:04:40.622Z,4.18
2018-04-24T22:07:08.163Z,5.53
2018-04-24T22:09:35.699Z,5.68
2018-04-24T22:12:03.998Z,5.57
2018-04-24T22:14:31.531Z,5.45
2018-04-24T22:16:59.842Z,5.03
2018-04-24T22:19:27.450Z,4.65
2018-04-24T22:21:54.987Z,4.57
2018-04-24T22:24:22.518Z,4.03
2018-04-24T22:26:50.851Z,5.47
2018-04-24T22:29:18.415Z,5.28
2018-04-24T22:31:45.951Z,5.43
2018-04-24T22:34:13.482Z,5.00
2018-04-24T22:36:41.802Z,5.55
2018-04-24T22:39:09.338Z,4.90
2018-04-24T22:41:36.895Z,4.75
2018-04-24T22:44:05.212Z,5.30
2018-04-24T22:46:32.742Z,5.10
2018-04-24T22:49:01.052Z,5.20
2018-04-24T22:51:28.601Z,6.57
2018-04-24T22:53:56.155Z,5.25
2018-04-24T22:56:23.706Z,4.93
2018-04-24T22:58:51.996Z,5.55
2018-04-24T23:01:20.317Z,5.90
2018-04-24T23:03:47.879Z,5.20
2018-04-24T23:06:15.438Z,5.10
2018-04-24T23:08:43.003Z,4.82
2018-04-24T23:11:22.358Z,5.70
2018-04-24T23:14:01.773Z,6.35
2018-04-24T23:16:41.114Z,6.15
2018-04-24T23:19:20.500Z,5.87
2018-04-24T23:21:48.361Z,5.70
2018-04-24T23:24:16.662Z,5.68
2018-04-24T23:26:44.221Z,6.03
2018-04-24T23:29:12.509Z,6.00
2018-04-24T23:31:40.043Z,5.32
2018-04-24T23:34:07.612Z,5.03
2018-04-24T23:36:35.920Z,5.62
2018-04-24T23:39:03.523Z,6.20
2018-04-24T23:41:31.105Z,5.28
2018-04-24T23:43:58.639Z,5.55
2018-04-24T23:46:26.189Z,5.75
2018-04-24T23:48:53.747Z,6.20
2018-04-24T23:51:21.306Z,5.70
2018-04-24T23:53:48.841Z,5.75
2018-04-24T23:56:16.423Z,5.82
2018-04-24T23:58:44.713Z,4.80
